Lyonsville, Indiana
Current Conditions -  °F | °C
As of 8:55 AM on Thursday 23 Oct 2014 (Local Time) from KI67 Reporting Station
Overcast Overcast  
Wind Chill: 34°   Ceiling: 100
Heat Index: 34°   Visibility: 0.5mi
Dew Point: 34°   Wind: 0mph
Humidity: 100%   Direction: NA
Pressure: 30.26"   Gusts: NA
Location:  39.645°N, 85.1744°W
Report Text: KI67 231255Z AUTO 00000KT 1/2SM OVC001 01/01 A3026 RMK AO1
Loading
Personal Weather Stations






























Interactive Weather Map
Tropical Storm Tracking
New forecast layout! Learn more

10-Day Weather Forecast

Advertisements
Track Severe Weather on mobile